sensor_id;sensor_type;location;lat;lon;timestamp;P1;durP1;ratioP1;P2;durP2;ratioP2
11084;SDS011;5596;46.826;8.650;2022-10-23T00:01:39;1.97;;;1.20;;
11084;SDS011;5596;46.826;8.650;2022-10-23T00:04:10;1.60;;;1.30;;
11084;SDS011;5596;46.826;8.650;2022-10-23T00:06:38;1.30;;;1.10;;
11084;SDS011;5596;46.826;8.650;2022-10-23T00:09:06;3.20;;;1.40;;
11084;SDS011;5596;46.826;8.650;2022-10-23T00:11:35;1.67;;;1.50;;
11084;SDS011;5596;46.826;8.650;2022-10-23T00:14:04;1.33;;;1.10;;
11084;SDS011;5596;46.826;8.650;2022-10-23T00:16:32;1.33;;;1.00;;
11084;SDS011;5596;46.826;8.650;2022-10-23T00:18:59;3.70;;;1.20;;
11084;SDS011;5596;46.826;8.650;2022-10-23T00:21:28;1.93;;;1.37;;
11084;SDS011;5596;46.826;8.650;2022-10-23T00:23:55;2.77;;;1.20;;
11084;SDS011;5596;46.826;8.650;2022-10-23T00:26:23;2.70;;;1.10;;
11084;SDS011;5596;46.826;8.650;2022-10-23T00:28:50;4.00;;;1.27;;
11084;SDS011;5596;46.826;8.650;2022-10-23T00:31:20;1.83;;;1.27;;
11084;SDS011;5596;46.826;8.650;2022-10-23T00:33:48;4.30;;;1.37;;
11084;SDS011;5596;46.826;8.650;2022-10-23T00:36:16;2.00;;;1.10;;
11084;SDS011;5596;46.826;8.650;2022-10-23T00:38:47;3.23;;;1.20;;
11084;SDS011;5596;46.826;8.650;2022-10-23T00:41:15;3.53;;;1.30;;
11084;SDS011;5596;46.826;8.650;2022-10-23T00:43:54;2.60;;;1.23;;
11084;SDS011;5596;46.826;8.650;2022-10-23T00:46:24;1.70;;;1.20;;
11084;SDS011;5596;46.826;8.650;2022-10-23T00:48:52;1.97;;;1.40;;
11084;SDS011;5596;46.826;8.650;2022-10-23T00:51:19;8.03;;;2.27;;
11084;SDS011;5596;46.826;8.650;2022-10-23T00:53:49;5.07;;;1.80;;
11084;SDS011;5596;46.826;8.650;2022-10-23T00:56:20;3.23;;;1.57;;
11084;SDS011;5596;46.826;8.650;2022-10-23T00:58:48;4.23;;;1.60;;
11084;SDS011;5596;46.826;8.650;2022-10-23T01:01:16;3.00;;;1.90;;
11084;SDS011;5596;46.826;8.650;2022-10-23T01:03:45;3.53;;;1.60;;
11084;SDS011;5596;46.826;8.650;2022-10-23T01:06:14;2.70;;;1.60;;
11084;SDS011;5596;46.826;8.650;2022-10-23T01:08:53;3.83;;;1.70;;
11084;SDS011;5596;46.826;8.650;2022-10-23T01:11:28;2.00;;;1.50;;
11084;SDS011;5596;46.826;8.650;2022-10-23T01:14:02;4.13;;;1.43;;
11084;SDS011;5596;46.826;8.650;2022-10-23T01:16:38;3.20;;;1.50;;
11084;SDS011;5596;46.826;8.650;2022-10-23T01:19:14;1.57;;;1.37;;
11084;SDS011;5596;46.826;8.650;2022-10-23T01:21:48;2.17;;;1.30;;
11084;SDS011;5596;46.826;8.650;2022-10-23T01:24:29;3.20;;;1.50;;
11084;SDS011;5596;46.826;8.650;2022-10-23T01:27:15;4.17;;;1.60;;
11084;SDS011;5596;46.826;8.650;2022-10-23T01:29:47;5.67;;;1.80;;
11084;SDS011;5596;46.826;8.650;2022-10-23T01:32:31;3.43;;;1.60;;
11084;SDS011;5596;46.826;8.650;2022-10-23T01:35:04;3.73;;;1.47;;
11084;SDS011;5596;46.826;8.650;2022-10-23T01:37:39;3.97;;;1.57;;
11084;SDS011;5596;46.826;8.650;2022-10-23T01:40:11;5.83;;;2.00;;
11084;SDS011;5596;46.826;8.650;2022-10-23T01:42:45;3.97;;;1.83;;
11084;SDS011;5596;46.826;8.650;2022-10-23T01:45:20;5.03;;;1.50;;
11084;SDS011;5596;46.826;8.650;2022-10-23T01:47:53;3.10;;;1.40;;
11084;SDS011;5596;46.826;8.650;2022-10-23T01:50:22;5.20;;;2.60;;
11084;SDS011;5596;46.826;8.650;2022-10-23T01:52:58;4.07;;;1.63;;
11084;SDS011;5596;46.826;8.650;2022-10-23T01:55:26;2.23;;;1.50;;
11084;SDS011;5596;46.826;8.650;2022-10-23T01:57:55;3.80;;;1.30;;
11084;SDS011;5596;46.826;8.650;2022-10-23T02:00:32;2.17;;;1.60;;
11084;SDS011;5596;46.826;8.650;2022-10-23T02:03:00;7.37;;;1.50;;
11084;SDS011;5596;46.826;8.650;2022-10-23T02:05:31;3.53;;;1.40;;
11084;SDS011;5596;46.826;8.650;2022-10-23T02:08:01;2.23;;;1.37;;
11084;SDS011;5596;46.826;8.650;2022-10-23T02:10:30;1.10;;;1.00;;
11084;SDS011;5596;46.826;8.650;2022-10-23T02:13:06;4.00;;;1.30;;
11084;SDS011;5596;46.826;8.650;2022-10-23T02:15:40;4.30;;;1.20;;
11084;SDS011;5596;46.826;8.650;2022-10-23T02:18:14;6.37;;;1.30;;
11084;SDS011;5596;46.826;8.650;2022-10-23T02:20:54;4.47;;;1.43;;
11084;SDS011;5596;46.826;8.650;2022-10-23T02:23:26;2.67;;;1.20;;
11084;SDS011;5596;46.826;8.650;2022-10-23T02:25:58;2.60;;;1.20;;
11084;SDS011;5596;46.826;8.650;2022-10-23T02:28:35;3.53;;;1.20;;
11084;SDS011;5596;46.826;8.650;2022-10-23T02:31:07;3.53;;;1.50;;
11084;SDS011;5596;46.826;8.650;2022-10-23T02:33:38;1.67;;;1.30;;
11084;SDS011;5596;46.826;8.650;2022-10-23T02:36:06;2.40;;;1.20;;
11084;SDS011;5596;46.826;8.650;2022-10-23T02:38:35;4.00;;;1.30;;
11084;SDS011;5596;46.826;8.650;2022-10-23T02:44:13;1.40;;;1.20;;
11084;SDS011;5596;46.826;8.650;2022-10-23T02:46:49;5.10;;;1.60;;
11084;SDS011;5596;46.826;8.650;2022-10-23T02:49:25;8.27;;;2.37;;
11084;SDS011;5596;46.826;8.650;2022-10-23T02:52:02;1.40;;;1.30;;
11084;SDS011;5596;46.826;8.650;2022-10-23T02:54:41;1.60;;;1.40;;
11084;SDS011;5596;46.826;8.650;2022-10-23T02:57:20;1.90;;;1.50;;
11084;SDS011;5596;46.826;8.650;2022-10-23T02:59:58;1.30;;;1.20;;
11084;SDS011;5596;46.826;8.650;2022-10-23T03:02:29;4.03;;;0.90;;
11084;SDS011;5596;46.826;8.650;2022-10-23T03:05:02;1.97;;;0.83;;
11084;SDS011;5596;46.826;8.650;2022-10-23T03:07:33;0.90;;;0.90;;
11084;SDS011;5596;46.826;8.650;2022-10-23T03:10:05;2.60;;;1.00;;
11084;SDS011;5596;46.826;8.650;2022-10-23T03:12:35;0.83;;;0.80;;
11084;SDS011;5596;46.826;8.650;2022-10-23T03:15:05;1.07;;;0.87;;
11084;SDS011;5596;46.826;8.650;2022-10-23T03:17:33;0.70;;;0.70;;
11084;SDS011;5596;46.826;8.650;2022-10-23T03:20:01;0.80;;;0.80;;
11084;SDS011;5596;46.826;8.650;2022-10-23T03:22:29;1.90;;;0.90;;
11084;SDS011;5596;46.826;8.650;2022-10-23T03:24:56;0.97;;;0.80;;
11084;SDS011;5596;46.826;8.650;2022-10-23T03:27:23;2.03;;;1.00;;
11084;SDS011;5596;46.826;8.650;2022-10-23T03:29:50;1.03;;;0.80;;
11084;SDS011;5596;46.826;8.650;2022-10-23T03:32:19;2.23;;;0.93;;
11084;SDS011;5596;46.826;8.650;2022-10-23T03:34:46;1.53;;;0.80;;
11084;SDS011;5596;46.826;8.650;2022-10-23T03:37:13;1.67;;;0.90;;
11084;SDS011;5596;46.826;8.650;2022-10-23T03:39:40;2.23;;;1.20;;
11084;SDS011;5596;46.826;8.650;2022-10-23T03:42:07;2.47;;;0.80;;
11084;SDS011;5596;46.826;8.650;2022-10-23T03:44:34;1.00;;;0.90;;
11084;SDS011;5596;46.826;8.650;2022-10-23T03:47:02;0.87;;;0.80;;
11084;SDS011;5596;46.826;8.650;2022-10-23T03:49:31;0.73;;;0.73;;
11084;SDS011;5596;46.826;8.650;2022-10-23T03:52:03;1.43;;;0.87;;
11084;SDS011;5596;46.826;8.650;2022-10-23T03:54:30;0.80;;;0.80;;
11084;SDS011;5596;46.826;8.650;2022-10-23T03:56:58;1.57;;;0.87;;
11084;SDS011;5596;46.826;8.650;2022-10-23T03:59:26;1.37;;;0.77;;
11084;SDS011;5596;46.826;8.650;2022-10-23T04:01:53;1.07;;;0.80;;
11084;SDS011;5596;46.826;8.650;2022-10-23T04:04:23;1.53;;;0.80;;
11084;SDS011;5596;46.826;8.650;2022-10-23T04:06:52;1.70;;;0.90;;
11084;SDS011;5596;46.826;8.650;2022-10-23T04:09:19;0.93;;;0.83;;
11084;SDS011;5596;46.826;8.650;2022-10-23T04:11:46;1.00;;;0.90;;
11084;SDS011;5596;46.826;8.650;2022-10-23T04:14:13;0.87;;;0.87;;
11084;SDS011;5596;46.826;8.650;2022-10-23T04:16:41;0.75;;;0.75;;
11084;SDS011;5596;46.826;8.650;2022-10-23T04:19:08;1.10;;;0.83;;
11084;SDS011;5596;46.826;8.650;2022-10-23T04:21:35;2.13;;;0.93;;
11084;SDS011;5596;46.826;8.650;2022-10-23T04:24:04;1.57;;;0.90;;
11084;SDS011;5596;46.826;8.650;2022-10-23T04:26:31;1.13;;;1.00;;
11084;SDS011;5596;46.826;8.650;2022-10-23T04:28:58;1.10;;;1.00;;
11084;SDS011;5596;46.826;8.650;2022-10-23T04:31:27;1.10;;;1.00;;
11084;SDS011;5596;46.826;8.650;2022-10-23T04:33:54;2.08;;;0.90;;
11084;SDS011;5596;46.826;8.650;2022-10-23T04:36:29;1.30;;;1.20;;
11084;SDS011;5596;46.826;8.650;2022-10-23T04:39:07;1.83;;;1.10;;
11084;SDS011;5596;46.826;8.650;2022-10-23T04:41:35;2.58;;;1.23;;
11084;SDS011;5596;46.826;8.650;2022-10-23T04:44:03;3.28;;;0.95;;
11084;SDS011;5596;46.826;8.650;2022-10-23T04:46:32;3.03;;;1.10;;
11084;SDS011;5596;46.826;8.650;2022-10-23T04:48:59;1.13;;;1.02;;
11084;SDS011;5596;46.826;8.650;2022-10-23T04:51:44;1.73;;;1.10;;
11084;SDS011;5596;46.826;8.650;2022-10-23T04:54:35;2.25;;;1.38;;
11084;SDS011;5596;46.826;8.650;2022-10-23T04:57:20;1.13;;;1.02;;
11084;SDS011;5596;46.826;8.650;2022-10-23T05:00:14;1.13;;;1.03;;
11084;SDS011;5596;46.826;8.650;2022-10-23T05:02:46;1.55;;;1.40;;
11084;SDS011;5596;46.826;8.650;2022-10-23T05:05:15;1.53;;;1.20;;
11084;SDS011;5596;46.826;8.650;2022-10-23T05:07:55;2.57;;;1.20;;
11084;SDS011;5596;46.826;8.650;2022-10-23T05:10:34;1.83;;;1.30;;
11084;SDS011;5596;46.826;8.650;2022-10-23T05:13:09;1.92;;;1.50;;
11084;SDS011;5596;46.826;8.650;2022-10-23T05:15:38;1.38;;;1.10;;
11084;SDS011;5596;46.826;8.650;2022-10-23T05:18:07;2.03;;;1.17;;
11084;SDS011;5596;46.826;8.650;2022-10-23T05:20:39;1.38;;;1.27;;
11084;SDS011;5596;46.826;8.650;2022-10-23T05:23:09;3.10;;;1.40;;
11084;SDS011;5596;46.826;8.650;2022-10-23T05:25:43;1.70;;;1.27;;
11084;SDS011;5596;46.826;8.650;2022-10-23T05:28:14;2.97;;;1.30;;
11084;SDS011;5596;46.826;8.650;2022-10-23T05:30:41;1.90;;;1.30;;
11084;SDS011;5596;46.826;8.650;2022-10-23T05:33:08;2.03;;;1.30;;
11084;SDS011;5596;46.826;8.650;2022-10-23T05:35:40;2.65;;;1.25;;
11084;SDS011;5596;46.826;8.650;2022-10-23T05:38:11;1.40;;;1.20;;
11084;SDS011;5596;46.826;8.650;2022-10-23T05:40:42;1.53;;;1.33;;
11084;SDS011;5596;46.826;8.650;2022-10-23T05:43:15;1.67;;;1.30;;
11084;SDS011;5596;46.826;8.650;2022-10-23T05:45:51;3.77;;;1.30;;
11084;SDS011;5596;46.826;8.650;2022-10-23T05:48:38;1.63;;;1.20;;
11084;SDS011;5596;46.826;8.650;2022-10-23T05:51:21;2.90;;;1.40;;
11084;SDS011;5596;46.826;8.650;2022-10-23T05:53:54;2.28;;;1.60;;
11084;SDS011;5596;46.826;8.650;2022-10-23T05:56:45;2.50;;;1.42;;
11084;SDS011;5596;46.826;8.650;2022-10-23T05:59:21;2.15;;;1.33;;
11084;SDS011;5596;46.826;8.650;2022-10-23T06:01:51;2.13;;;1.48;;
11084;SDS011;5596;46.826;8.650;2022-10-23T06:04:32;2.72;;;1.48;;
11084;SDS011;5596;46.826;8.650;2022-10-23T06:07:35;2.63;;;1.08;;
11084;SDS011;5596;46.826;8.650;2022-10-23T06:10:06;2.25;;;1.30;;
11084;SDS011;5596;46.826;8.650;2022-10-23T06:12:40;2.95;;;1.20;;
11084;SDS011;5596;46.826;8.650;2022-10-23T06:15:11;6.77;;;1.50;;
11084;SDS011;5596;46.826;8.650;2022-10-23T06:18:07;5.20;;;1.20;;
11084;SDS011;5596;46.826;8.650;2022-10-23T06:20:41;3.57;;;1.27;;
11084;SDS011;5596;46.826;8.650;2022-10-23T06:23:15;1.90;;;1.50;;
11084;SDS011;5596;46.826;8.650;2022-10-23T06:26:01;1.97;;;1.20;;
11084;SDS011;5596;46.826;8.650;2022-10-23T06:28:41;3.33;;;1.50;;
11084;SDS011;5596;46.826;8.650;2022-10-23T06:31:09;5.87;;;1.43;;
11084;SDS011;5596;46.826;8.650;2022-10-23T06:33:38;1.97;;;1.10;;
11084;SDS011;5596;46.826;8.650;2022-10-23T06:36:06;1.40;;;1.30;;
11084;SDS011;5596;46.826;8.650;2022-10-23T06:38:36;3.57;;;1.50;;
11084;SDS011;5596;46.826;8.650;2022-10-23T06:41:05;2.90;;;1.20;;
11084;SDS011;5596;46.826;8.650;2022-10-23T06:43:37;6.20;;;1.60;;
11084;SDS011;5596;46.826;8.650;2022-10-23T06:46:17;1.90;;;1.70;;
11084;SDS011;5596;46.826;8.650;2022-10-23T06:49:16;9.50;;;1.60;;
11084;SDS011;5596;46.826;8.650;2022-10-23T06:51:46;4.53;;;1.50;;
11084;SDS011;5596;46.826;8.650;2022-10-23T06:54:15;2.97;;;1.50;;
11084;SDS011;5596;46.826;8.650;2022-10-23T06:56:48;3.83;;;1.47;;
11084;SDS011;5596;46.826;8.650;2022-10-23T06:59:29;4.03;;;1.57;;
11084;SDS011;5596;46.826;8.650;2022-10-23T07:01:57;4.30;;;1.73;;
11084;SDS011;5596;46.826;8.650;2022-10-23T07:04:25;3.77;;;1.60;;
11084;SDS011;5596;46.826;8.650;2022-10-23T07:06:54;3.90;;;1.33;;
11084;SDS011;5596;46.826;8.650;2022-10-23T07:09:26;3.47;;;1.60;;
11084;SDS011;5596;46.826;8.650;2022-10-23T07:11:53;4.20;;;1.80;;
11084;SDS011;5596;46.826;8.650;2022-10-23T07:14:26;2.40;;;1.30;;
11084;SDS011;5596;46.826;8.650;2022-10-23T07:16:59;1.77;;;1.50;;
11084;SDS011;5596;46.826;8.650;2022-10-23T07:19:27;4.90;;;1.40;;
11084;SDS011;5596;46.826;8.650;2022-10-23T07:21:56;2.73;;;1.70;;
11084;SDS011;5596;46.826;8.650;2022-10-23T07:24:35;2.47;;;1.60;;
11084;SDS011;5596;46.826;8.650;2022-10-23T07:27:12;3.33;;;1.50;;
11084;SDS011;5596;46.826;8.650;2022-10-23T07:29:39;1.53;;;1.43;;
11084;SDS011;5596;46.826;8.650;2022-10-23T07:32:08;2.70;;;1.57;;
11084;SDS011;5596;46.826;8.650;2022-10-23T07:34:53;1.73;;;1.20;;
11084;SDS011;5596;46.826;8.650;2022-10-23T07:37:29;2.27;;;1.53;;
11084;SDS011;5596;46.826;8.650;2022-10-23T07:39:59;1.75;;;1.40;;
11084;SDS011;5596;46.826;8.650;2022-10-23T07:42:26;3.45;;;1.80;;
11084;SDS011;5596;46.826;8.650;2022-10-23T07:44:53;1.40;;;1.30;;
11084;SDS011;5596;46.826;8.650;2022-10-23T07:47:22;1.85;;;1.33;;
11084;SDS011;5596;46.826;8.650;2022-10-23T07:49:50;2.00;;;1.50;;
11084;SDS011;5596;46.826;8.650;2022-10-23T07:52:19;1.90;;;1.60;;
11084;SDS011;5596;46.826;8.650;2022-10-23T07:55:05;2.40;;;1.30;;
11084;SDS011;5596;46.826;8.650;2022-10-23T07:57:36;1.70;;;1.35;;
11084;SDS011;5596;46.826;8.650;2022-10-23T08:00:15;1.65;;;1.20;;
11084;SDS011;5596;46.826;8.650;2022-10-23T08:02:54;2.65;;;1.33;;
11084;SDS011;5596;46.826;8.650;2022-10-23T08:05:21;2.28;;;1.25;;
11084;SDS011;5596;46.826;8.650;2022-10-23T08:07:55;1.15;;;1.05;;
11084;SDS011;5596;46.826;8.650;2022-10-23T08:10:23;2.22;;;1.48;;
11084;SDS011;5596;46.826;8.650;2022-10-23T08:12:50;1.80;;;1.38;;
11084;SDS011;5596;46.826;8.650;2022-10-23T08:15:20;3.40;;;2.50;;
11084;SDS011;5596;46.826;8.650;2022-10-23T08:17:57;1.52;;;1.25;;
11084;SDS011;5596;46.826;8.650;2022-10-23T08:20:37;2.47;;;1.40;;
11084;SDS011;5596;46.826;8.650;2022-10-23T08:23:05;2.20;;;1.00;;
11084;SDS011;5596;46.826;8.650;2022-10-23T08:25:32;1.52;;;1.30;;
11084;SDS011;5596;46.826;8.650;2022-10-23T08:27:59;1.20;;;1.10;;
11084;SDS011;5596;46.826;8.650;2022-10-23T08:30:27;2.15;;;1.10;;
11084;SDS011;5596;46.826;8.650;2022-10-23T08:32:54;1.90;;;1.20;;
11084;SDS011;5596;46.826;8.650;2022-10-23T08:35:22;1.17;;;1.08;;
11084;SDS011;5596;46.826;8.650;2022-10-23T08:37:50;2.90;;;1.02;;
11084;SDS011;5596;46.826;8.650;2022-10-23T08:40:19;1.75;;;1.17;;
11084;SDS011;5596;46.826;8.650;2022-10-23T08:43:11;1.23;;;1.13;;
11084;SDS011;5596;46.826;8.650;2022-10-23T08:45:57;1.88;;;1.30;;
11084;SDS011;5596;46.826;8.650;2022-10-23T08:48:47;1.13;;;1.00;;
11084;SDS011;5596;46.826;8.650;2022-10-23T08:51:40;2.88;;;1.30;;
11084;SDS011;5596;46.826;8.650;2022-10-23T08:54:11;3.60;;;1.30;;
11084;SDS011;5596;46.826;8.650;2022-10-23T08:56:41;2.08;;;1.27;;
11084;SDS011;5596;46.826;8.650;2022-10-23T08:59:14;1.55;;;1.13;;
11084;SDS011;5596;46.826;8.650;2022-10-23T09:01:48;2.45;;;1.30;;
11084;SDS011;5596;46.826;8.650;2022-10-23T09:04:19;2.33;;;1.10;;
11084;SDS011;5596;46.826;8.650;2022-10-23T09:06:48;2.78;;;1.40;;
11084;SDS011;5596;46.826;8.650;2022-10-23T09:09:29;2.65;;;1.40;;
11084;SDS011;5596;46.826;8.650;2022-10-23T09:12:08;2.67;;;1.50;;
11084;SDS011;5596;46.826;8.650;2022-10-23T09:17:36;2.63;;;1.30;;
11084;SDS011;5596;46.826;8.650;2022-10-23T09:20:10;2.55;;;1.40;;
11084;SDS011;5596;46.826;8.650;2022-10-23T09:22:42;3.33;;;1.40;;
11084;SDS011;5596;46.826;8.650;2022-10-23T09:25:14;3.47;;;1.35;;
11084;SDS011;5596;46.826;8.650;2022-10-23T09:27:45;3.15;;;1.52;;
11084;SDS011;5596;46.826;8.650;2022-10-23T09:30:23;3.08;;;1.48;;
11084;SDS011;5596;46.826;8.650;2022-10-23T09:32:51;5.65;;;2.00;;
11084;SDS011;5596;46.826;8.650;2022-10-23T09:35:21;3.28;;;1.98;;
11084;SDS011;5596;46.826;8.650;2022-10-23T09:37:51;7.38;;;2.08;;
11084;SDS011;5596;46.826;8.650;2022-10-23T09:40:20;3.03;;;1.52;;
11084;SDS011;5596;46.826;8.650;2022-10-23T09:42:55;2.58;;;1.50;;
11084;SDS011;5596;46.826;8.650;2022-10-23T09:45:25;3.78;;;1.70;;
11084;SDS011;5596;46.826;8.650;2022-10-23T09:48:05;4.80;;;1.45;;
11084;SDS011;5596;46.826;8.650;2022-10-23T09:50:41;5.78;;;1.77;;
11084;SDS011;5596;46.826;8.650;2022-10-23T09:53:15;2.58;;;1.80;;
11084;SDS011;5596;46.826;8.650;2022-10-23T09:55:49;3.20;;;1.50;;
11084;SDS011;5596;46.826;8.650;2022-10-23T09:58:20;3.10;;;1.73;;
11084;SDS011;5596;46.826;8.650;2022-10-23T10:00:50;3.20;;;1.58;;
11084;SDS011;5596;46.826;8.650;2022-10-23T10:03:17;3.85;;;2.00;;
11084;SDS011;5596;46.826;8.650;2022-10-23T10:06:01;3.65;;;1.70;;
11084;SDS011;5596;46.826;8.650;2022-10-23T10:08:38;2.63;;;1.60;;
11084;SDS011;5596;46.826;8.650;2022-10-23T10:11:11;5.28;;;2.28;;
11084;SDS011;5596;46.826;8.650;2022-10-23T10:13:48;8.15;;;2.00;;
11084;SDS011;5596;46.826;8.650;2022-10-23T10:16:24;5.70;;;2.00;;
11084;SDS011;5596;46.826;8.650;2022-10-23T10:19:00;4.82;;;2.05;;
11084;SDS011;5596;46.826;8.650;2022-10-23T10:21:33;5.70;;;2.03;;
11084;SDS011;5596;46.826;8.650;2022-10-23T10:24:07;5.88;;;1.80;;
11084;SDS011;5596;46.826;8.650;2022-10-23T10:26:42;4.18;;;1.92;;
11084;SDS011;5596;46.826;8.650;2022-10-23T10:29:16;5.40;;;2.03;;
11084;SDS011;5596;46.826;8.650;2022-10-23T10:31:56;6.43;;;2.25;;
11084;SDS011;5596;46.826;8.650;2022-10-23T10:34:33;4.75;;;1.80;;
11084;SDS011;5596;46.826;8.650;2022-10-23T10:37:12;7.88;;;2.20;;
11084;SDS011;5596;46.826;8.650;2022-10-23T10:39:50;8.02;;;2.10;;
11084;SDS011;5596;46.826;8.650;2022-10-23T10:42:30;5.53;;;1.80;;
11084;SDS011;5596;46.826;8.650;2022-10-23T10:45:14;3.35;;;1.90;;
11084;SDS011;5596;46.826;8.650;2022-10-23T10:47:48;4.80;;;2.00;;
11084;SDS011;5596;46.826;8.650;2022-10-23T10:50:29;7.22;;;1.92;;
11084;SDS011;5596;46.826;8.650;2022-10-23T10:53:17;5.28;;;1.80;;
11084;SDS011;5596;46.826;8.650;2022-10-23T10:55:51;4.10;;;1.77;;
11084;SDS011;5596;46.826;8.650;2022-10-23T10:58:22;4.63;;;1.92;;
11084;SDS011;5596;46.826;8.650;2022-10-23T11:00:57;5.68;;;2.00;;
11084;SDS011;5596;46.826;8.650;2022-10-23T11:03:30;5.90;;;2.10;;
11084;SDS011;5596;46.826;8.650;2022-10-23T11:06:03;6.10;;;1.90;;
11084;SDS011;5596;46.826;8.650;2022-10-23T11:08:38;8.38;;;1.90;;
11084;SDS011;5596;46.826;8.650;2022-10-23T11:11:08;6.80;;;2.00;;
11084;SDS011;5596;46.826;8.650;2022-10-23T11:13:40;5.30;;;2.33;;
11084;SDS011;5596;46.826;8.650;2022-10-23T11:16:10;4.22;;;2.22;;
11084;SDS011;5596;46.826;8.650;2022-10-23T11:18:41;7.45;;;2.03;;
11084;SDS011;5596;46.826;8.650;2022-10-23T11:21:17;7.35;;;2.45;;
11084;SDS011;5596;46.826;8.650;2022-10-23T11:23:56;6.70;;;1.90;;
11084;SDS011;5596;46.826;8.650;2022-10-23T11:26:39;6.47;;;2.28;;
11084;SDS011;5596;46.826;8.650;2022-10-23T11:29:18;3.63;;;2.15;;
11084;SDS011;5596;46.826;8.650;2022-10-23T11:32:22;6.78;;;2.05;;
11084;SDS011;5596;46.826;8.650;2022-10-23T11:35:09;8.18;;;2.20;;
11084;SDS011;5596;46.826;8.650;2022-10-23T11:37:55;4.50;;;1.95;;
11084;SDS011;5596;46.826;8.650;2022-10-23T11:40:23;6.22;;;1.95;;
11084;SDS011;5596;46.826;8.650;2022-10-23T11:42:52;5.50;;;1.67;;
11084;SDS011;5596;46.826;8.650;2022-10-23T11:45:31;5.55;;;2.05;;
11084;SDS011;5596;46.826;8.650;2022-10-23T11:48:01;11.32;;;2.75;;
11084;SDS011;5596;46.826;8.650;2022-10-23T11:50:31;5.72;;;2.00;;
11084;SDS011;5596;46.826;8.650;2022-10-23T11:53:01;7.32;;;2.10;;
11084;SDS011;5596;46.826;8.650;2022-10-23T11:55:35;8.10;;;2.22;;
11084;SDS011;5596;46.826;8.650;2022-10-23T11:58:20;7.47;;;2.83;;
11084;SDS011;5596;46.826;8.650;2022-10-23T12:00:53;9.20;;;2.90;;
11084;SDS011;5596;46.826;8.650;2022-10-23T12:03:27;6.72;;;1.90;;
11084;SDS011;5596;46.826;8.650;2022-10-23T12:06:00;4.78;;;1.98;;
11084;SDS011;5596;46.826;8.650;2022-10-23T12:08:34;8.95;;;2.72;;
11084;SDS011;5596;46.826;8.650;2022-10-23T12:13:56;7.47;;;2.70;;
11084;SDS011;5596;46.826;8.650;2022-10-23T12:16:33;5.43;;;1.98;;
11084;SDS011;5596;46.826;8.650;2022-10-23T12:19:03;5.57;;;2.03;;
11084;SDS011;5596;46.826;8.650;2022-10-23T12:21:43;7.90;;;2.38;;
11084;SDS011;5596;46.826;8.650;2022-10-23T12:24:20;8.30;;;2.40;;
11084;SDS011;5596;46.826;8.650;2022-10-23T12:27:15;4.30;;;2.25;;
11084;SDS011;5596;46.826;8.650;2022-10-23T12:29:55;7.13;;;2.45;;
11084;SDS011;5596;46.826;8.650;2022-10-23T12:32:46;8.63;;;2.42;;
11084;SDS011;5596;46.826;8.650;2022-10-23T12:38:43;8.60;;;2.17;;
11084;SDS011;5596;46.826;8.650;2022-10-23T12:41:12;6.18;;;2.10;;
11084;SDS011;5596;46.826;8.650;2022-10-23T12:43:44;6.78;;;2.80;;
11084;SDS011;5596;46.826;8.650;2022-10-23T12:46:24;6.72;;;2.38;;
11084;SDS011;5596;46.826;8.650;2022-10-23T12:48:58;8.18;;;2.92;;
11084;SDS011;5596;46.826;8.650;2022-10-23T12:51:27;8.50;;;2.42;;
11084;SDS011;5596;46.826;8.650;2022-10-23T12:53:56;7.90;;;2.45;;
11084;SDS011;5596;46.826;8.650;2022-10-23T12:56:23;11.70;;;2.72;;
11084;SDS011;5596;46.826;8.650;2022-10-23T12:58:52;10.68;;;2.10;;
11084;SDS011;5596;46.826;8.650;2022-10-23T13:01:25;7.78;;;2.03;;
11084;SDS011;5596;46.826;8.650;2022-10-23T13:03:57;7.68;;;2.20;;
11084;SDS011;5596;46.826;8.650;2022-10-23T13:06:28;7.47;;;2.10;;
11084;SDS011;5596;46.826;8.650;2022-10-23T13:08:55;9.65;;;2.38;;
11084;SDS011;5596;46.826;8.650;2022-10-23T13:11:28;5.43;;;1.85;;
11084;SDS011;5596;46.826;8.650;2022-10-23T13:14:00;9.02;;;2.30;;
11084;SDS011;5596;46.826;8.650;2022-10-23T13:16:29;6.30;;;2.65;;
11084;SDS011;5596;46.826;8.650;2022-10-23T13:18:56;7.70;;;2.10;;
11084;SDS011;5596;46.826;8.650;2022-10-23T13:21:23;7.22;;;2.20;;
11084;SDS011;5596;46.826;8.650;2022-10-23T13:23:54;8.15;;;2.42;;
11084;SDS011;5596;46.826;8.650;2022-10-23T13:26:23;7.07;;;2.88;;
11084;SDS011;5596;46.826;8.650;2022-10-23T13:28:54;7.50;;;2.45;;
11084;SDS011;5596;46.826;8.650;2022-10-23T13:31:26;9.20;;;2.65;;
11084;SDS011;5596;46.826;8.650;2022-10-23T13:34:17;6.30;;;2.40;;
11084;SDS011;5596;46.826;8.650;2022-10-23T13:36:51;8.77;;;2.35;;
11084;SDS011;5596;46.826;8.650;2022-10-23T13:39:27;10.93;;;2.97;;
11084;SDS011;5596;46.826;8.650;2022-10-23T13:41:57;10.32;;;2.97;;
11084;SDS011;5596;46.826;8.650;2022-10-23T13:44:27;9.73;;;2.83;;
11084;SDS011;5596;46.826;8.650;2022-10-23T13:46:56;12.40;;;2.50;;
11084;SDS011;5596;46.826;8.650;2022-10-23T13:49:23;7.38;;;2.75;;
11084;SDS011;5596;46.826;8.650;2022-10-23T13:51:51;10.20;;;3.00;;
11084;SDS011;5596;46.826;8.650;2022-10-23T13:54:20;9.23;;;2.63;;
11084;SDS011;5596;46.826;8.650;2022-10-23T13:56:48;6.43;;;2.65;;
11084;SDS011;5596;46.826;8.650;2022-10-23T13:59:15;8.57;;;2.72;;
11084;SDS011;5596;46.826;8.650;2022-10-23T14:01:44;7.38;;;2.45;;
11084;SDS011;5596;46.826;8.650;2022-10-23T14:04:14;9.48;;;3.10;;
11084;SDS011;5596;46.826;8.650;2022-10-23T14:06:42;8.20;;;3.30;;
11084;SDS011;5596;46.826;8.650;2022-10-23T14:09:10;6.50;;;3.15;;
11084;SDS011;5596;46.826;8.650;2022-10-23T14:11:38;9.23;;;2.78;;
11084;SDS011;5596;46.826;8.650;2022-10-23T14:14:05;13.45;;;3.58;;
11084;SDS011;5596;46.826;8.650;2022-10-23T14:16:33;8.05;;;2.67;;
11084;SDS011;5596;46.826;8.650;2022-10-23T14:19:00;13.18;;;2.70;;
11084;SDS011;5596;46.826;8.650;2022-10-23T14:21:28;10.05;;;3.15;;
11084;SDS011;5596;46.826;8.650;2022-10-23T14:23:55;7.75;;;2.83;;
11084;SDS011;5596;46.826;8.650;2022-10-23T14:26:23;11.57;;;2.90;;
11084;SDS011;5596;46.826;8.650;2022-10-23T14:28:52;9.00;;;3.08;;
11084;SDS011;5596;46.826;8.650;2022-10-23T14:31:20;7.50;;;2.53;;
11084;SDS011;5596;46.826;8.650;2022-10-23T14:33:50;9.77;;;2.95;;
11084;SDS011;5596;46.826;8.650;2022-10-23T14:36:19;12.43;;;2.88;;
11084;SDS011;5596;46.826;8.650;2022-10-23T14:38:50;8.30;;;2.50;;
11084;SDS011;5596;46.826;8.650;2022-10-23T14:41:20;8.38;;;2.88;;
11084;SDS011;5596;46.826;8.650;2022-10-23T14:43:48;7.38;;;2.55;;
11084;SDS011;5596;46.826;8.650;2022-10-23T14:46:15;9.50;;;2.70;;
11084;SDS011;5596;46.826;8.650;2022-10-23T14:48:46;9.18;;;2.72;;
11084;SDS011;5596;46.826;8.650;2022-10-23T14:51:17;5.40;;;2.60;;
11084;SDS011;5596;46.826;8.650;2022-10-23T14:53:45;9.85;;;2.58;;
11084;SDS011;5596;46.826;8.650;2022-10-23T14:56:14;9.80;;;2.60;;
11084;SDS011;5596;46.826;8.650;2022-10-23T14:58:41;6.50;;;2.33;;
11084;SDS011;5596;46.826;8.650;2022-10-23T15:01:09;6.80;;;2.80;;
11084;SDS011;5596;46.826;8.650;2022-10-23T15:03:36;6.30;;;2.63;;
11084;SDS011;5596;46.826;8.650;2022-10-23T15:06:04;7.47;;;2.78;;
11084;SDS011;5596;46.826;8.650;2022-10-23T15:08:32;7.35;;;2.50;;
11084;SDS011;5596;46.826;8.650;2022-10-23T15:11:01;6.80;;;2.45;;
11084;SDS011;5596;46.826;8.650;2022-10-23T15:13:30;7.85;;;2.47;;
11084;SDS011;5596;46.826;8.650;2022-10-23T15:16:01;9.35;;;2.92;;
11084;SDS011;5596;46.826;8.650;2022-10-23T15:18:30;8.98;;;2.92;;
11084;SDS011;5596;46.826;8.650;2022-10-23T15:20:57;10.73;;;2.92;;
11084;SDS011;5596;46.826;8.650;2022-10-23T15:23:25;7.90;;;2.83;;
11084;SDS011;5596;46.826;8.650;2022-10-23T15:25:56;7.20;;;2.75;;
11084;SDS011;5596;46.826;8.650;2022-10-23T15:28:24;8.93;;;3.30;;
11084;SDS011;5596;46.826;8.650;2022-10-23T15:30:53;8.10;;;3.13;;
11084;SDS011;5596;46.826;8.650;2022-10-23T15:33:20;7.93;;;2.80;;
11084;SDS011;5596;46.826;8.650;2022-10-23T15:35:48;11.85;;;3.33;;
11084;SDS011;5596;46.826;8.650;2022-10-23T15:38:17;10.38;;;3.28;;
11084;SDS011;5596;46.826;8.650;2022-10-23T15:40:44;8.10;;;2.85;;
11084;SDS011;5596;46.826;8.650;2022-10-23T15:43:12;8.90;;;2.72;;
11084;SDS011;5596;46.826;8.650;2022-10-23T15:45:39;8.80;;;3.50;;